Time;durP1;ratioP1;P1;durP2;ratioP2;P2;SDS_P1;SDS_P2;PMS_P1;PMS_P2;Temp;Humidity;BMP_temperature;BMP_pressure;BME280_temperature;BME280_humidity;BME280_pressure;Samples;Min_cycle;Max_cycle;Signal;HPM_P1;HPM_P2
2022/11/30 00:00:20;;;;;;;75.22;32.03;;;6.40;99.90;;;;;;5072586;28;20055;-84
2022/11/30 00:02:48;;;;;;;80.70;31.65;;;6.50;99.90;;;;;;5073645;28;20036;-84
2022/11/30 00:05:14;;;;;;;78.88;30.27;;;6.40;99.90;;;;;;5087846;28;20040;-83
2022/11/30 00:07:41;;;;;;;69.93;29.25;;;6.40;99.90;;;;;;5073466;28;20028;-84
2022/11/30 00:10:08;;;;;;;71.75;28.65;;;6.40;99.90;;;;;;5073031;28;20087;-83
2022/11/30 00:12:34;;;;;;;74.43;29.80;;;6.40;99.90;;;;;;5073533;28;20036;-83
2022/11/30 00:15:00;;;;;;;75.05;29.73;;;6.30;99.90;;;;;;5073529;28;20033;-83
2022/11/30 00:17:26;;;;;;;74.10;30.45;;;6.30;99.90;;;;;;5072950;28;20043;-83
2022/11/30 00:19:53;;;;;;;79.25;30.17;;;6.30;99.90;;;;;;5065264;28;20028;-83
2022/11/30 00:22:19;;;;;;;83.47;32.33;;;6.30;99.90;;;;;;5072077;28;20473;-83
2022/11/30 00:24:45;;;;;;;79.68;31.90;;;6.40;99.90;;;;;;5072861;28;20024;-83
2022/11/30 00:27:11;;;;;;;73.57;30.70;;;6.30;99.90;;;;;;5072392;28;20024;-83
2022/11/30 00:29:37;;;;;;;74.72;30.55;;;6.30;99.90;;;;;;5088524;28;20049;-83
2022/11/30 00:32:04;;;;;;;72.80;29.25;;;6.30;99.90;;;;;;5071715;28;20041;-83
2022/11/30 00:34:30;;;;;;;74.88;32.25;;;6.30;99.90;;;;;;5072618;28;20031;-83
2022/11/30 00:36:56;;;;;;;77.72;31.90;;;6.30;99.90;;;;;;5072725;28;20039;-83
2022/11/30 00:39:23;;;;;;;73.78;31.23;;;6.20;99.90;;;;;;5072411;28;20131;-83
2022/11/30 00:41:49;;;;;;;85.03;32.00;;;6.20;99.90;;;;;;5072886;28;20043;-84
2022/11/30 00:44:15;;;;;;;80.55;29.40;;;6.20;99.90;;;;;;5072486;28;20359;-83
2022/11/30 00:46:42;;;;;;;74.45;29.45;;;6.20;99.90;;;;;;5073414;28;20477;-83
2022/11/30 00:49:08;;;;;;;83.55;32.00;;;6.20;99.90;;;;;;5071969;28;20390;-82
2022/11/30 00:51:34;;;;;;;82.15;32.05;;;6.20;99.90;;;;;;5072684;28;20469;-83
2022/11/30 00:54:00;;;;;;;79.43;30.45;;;6.20;99.90;;;;;;5072446;28;20041;-82
2022/11/30 00:56:26;;;;;;;81.15;31.77;;;6.20;99.90;;;;;;5070837;28;20035;-83
2022/11/30 00:58:53;;;;;;;78.22;31.02;;;6.20;99.90;;;;;;5072244;28;20028;-83
2022/11/30 01:01:19;;;;;;;73.20;29.77;;;6.20;99.90;;;;;;5071857;28;20051;-83
2022/11/30 01:03:45;;;;;;;78.15;32.90;;;6.20;99.90;;;;;;5072649;28;20040;-83
2022/11/30 01:06:11;;;;;;;70.82;29.55;;;6.20;99.90;;;;;;5071586;28;20033;-83
2022/11/30 01:08:38;;;;;;;78.30;30.48;;;6.20;99.90;;;;;;5072366;28;20033;-83
2022/11/30 01:11:16;;;;;;;69.30;29.75;;;6.20;99.90;;;;;;5087839;28;20036;-83
2022/11/30 01:13:42;;;;;;;65.63;28.83;;;6.20;99.90;;;;;;5072004;28;20043;-83
2022/11/30 01:16:11;;;;;;;74.10;29.00;;;6.20;99.90;;;;;;5069853;28;20039;-82
2022/11/30 01:18:37;;;;;;;75.22;29.70;;;6.20;99.90;;;;;;5071596;28;20458;-83
2022/11/30 01:21:08;;;;;;;73.95;30.88;;;6.20;99.90;;;;;;5072446;28;20036;-83
2022/11/30 01:23:35;;;;;;;81.40;31.85;;;6.20;99.90;;;;;;5073456;28;20374;-83
2022/11/30 01:26:01;;;;;;;83.35;27.30;;;6.20;99.90;;;;;;5072481;28;20033;-83
2022/11/30 01:28:27;;;;;;;74.82;31.25;;;6.20;99.90;;;;;;5071424;28;20028;-83
2022/11/30 01:31:13;;;;;;;75.82;28.35;;;6.20;99.90;;;;;;5071954;28;20473;-83
2022/11/30 01:33:41;;;;;;;84.05;31.77;;;6.20;99.90;;;;;;5072073;28;20032;-83
2022/11/30 01:36:22;;;;;;;77.70;28.17;;;6.20;99.90;;;;;;5071712;28;20045;-82
2022/11/30 01:38:51;;;;;;;81.25;30.80;;;6.20;99.90;;;;;;5072272;28;20051;-83
2022/11/30 01:41:30;;;;;;;76.40;31.55;;;6.20;99.90;;;;;;5070905;28;20474;-83
2022/11/30 01:44:16;;;;;;;75.82;29.98;;;6.20;99.90;;;;;;5071937;28;20025;-83
2022/11/30 01:46:45;;;;;;;77.03;29.67;;;6.20;99.90;;;;;;5072458;28;20389;-83
2022/11/30 01:49:17;;;;;;;72.65;28.08;;;6.20;99.90;;;;;;5069766;28;20059;-83
2022/11/30 01:51:56;;;;;;;73.18;29.83;;;6.20;99.90;;;;;;5073236;28;20162;-82
2022/11/30 01:54:29;;;;;;;86.78;29.95;;;6.20;99.90;;;;;;5087602;28;20048;-84
2022/11/30 01:57:00;;;;;;;75.97;32.30;;;6.20;99.90;;;;;;5072860;28;20374;-83
2022/11/30 01:59:26;;;;;;;97.40;33.35;;;6.20;99.90;;;;;;5070843;28;20127;-83
2022/11/30 02:01:54;;;;;;;78.38;31.50;;;6.20;99.90;;;;;;5072440;28;20035;-83
2022/11/30 02:04:33;;;;;;;91.95;33.10;;;6.20;99.90;;;;;;5071746;28;20055;-83
2022/11/30 02:07:01;;;;;;;75.50;30.58;;;6.20;99.90;;;;;;5072294;28;20401;-83
2022/11/30 02:09:28;;;;;;;90.80;34.40;;;6.20;99.90;;;;;;5085628;28;20031;-82
2022/11/30 02:11:55;;;;;;;87.10;33.25;;;6.20;99.90;;;;;;5111417;28;20045;-83
2022/11/30 02:14:38;;;;;;;79.65;31.48;;;6.20;99.90;;;;;;5080688;28;20038;-83
2022/11/30 02:17:16;;;;;;;83.78;32.63;;;6.20;99.90;;;;;;5072153;28;20061;-84
2022/11/30 02:20:00;;;;;;;78.47;31.40;;;6.20;99.90;;;;;;5086935;28;20044;-84
2022/11/30 02:22:52;;;;;;;82.75;32.63;;;6.20;99.90;;;;;;5069305;28;20045;-84
2022/11/30 02:25:39;;;;;;;83.88;31.17;;;6.30;99.90;;;;;;5070794;28;20033;-84
2022/11/30 02:28:30;;;;;;;88.75;32.10;;;6.30;99.90;;;;;;5063861;28;20024;-83
2022/11/30 02:31:00;;;;;;;88.25;32.80;;;6.30;99.90;;;;;;5060276;28;20047;-83
2022/11/30 02:33:30;;;;;;;84.57;32.17;;;6.30;99.90;;;;;;5074582;28;20032;-83
2022/11/30 02:35:58;;;;;;;89.32;31.75;;;6.30;99.90;;;;;;5090967;28;20475;-83
2022/11/30 02:38:26;;;;;;;86.65;33.67;;;6.20;99.90;;;;;;5074093;28;20039;-83
2022/11/30 02:40:52;;;;;;;103.32;36.08;;;6.20;99.90;;;;;;5073566;28;20111;-82
2022/11/30 02:43:25;;;;;;;89.70;32.53;;;6.20;99.90;;;;;;5074143;28;20036;-83
2022/11/30 02:45:57;;;;;;;100.93;35.70;;;6.20;99.90;;;;;;5074963;28;20035;-83
2022/11/30 02:48:31;;;;;;;90.88;34.05;;;6.20;99.90;;;;;;5074304;28;20461;-81
2022/11/30 02:51:01;;;;;;;85.78;32.40;;;6.20;99.90;;;;;;5075007;28;20037;-82
2022/11/30 02:53:27;;;;;;;86.00;33.13;;;6.30;99.90;;;;;;5074260;28;20047;-82
2022/11/30 02:55:53;;;;;;;75.40;30.88;;;6.20;99.90;;;;;;5075053;28;20033;-82
2022/11/30 02:58:21;;;;;;;88.68;33.60;;;6.30;99.90;;;;;;5073940;28;20035;-82
2022/11/30 03:00:47;;;;;;;93.63;33.17;;;6.20;99.90;;;;;;5075007;28;20484;-81
2022/11/30 03:03:13;;;;;;;100.32;38.40;;;6.20;99.90;;;;;;5073894;28;20044;-82
2022/11/30 03:05:39;;;;;;;85.25;32.42;;;6.20;99.90;;;;;;5074625;28;20450;-82
2022/11/30 03:08:05;;;;;;;93.78;32.20;;;6.20;99.90;;;;;;5074413;28;20462;-82
2022/11/30 03:10:31;;;;;;;92.75;33.40;;;6.20;99.90;;;;;;5073553;28;20115;-82
2022/11/30 03:12:59;;;;;;;100.03;33.75;;;6.20;99.90;;;;;;5074319;28;20051;-83
2022/11/30 03:15:25;;;;;;;97.50;35.75;;;6.20;99.90;;;;;;5073295;28;20032;-82
2022/11/30 03:17:51;;;;;;;88.05;34.70;;;6.20;99.90;;;;;;5074280;28;20037;-82
2022/11/30 03:20:18;;;;;;;88.43;32.80;;;6.20;99.90;;;;;;5077640;28;20031;-82
2022/11/30 03:22:44;;;;;;;96.50;35.38;;;6.30;99.90;;;;;;5094541;28;20043;-82
2022/11/30 03:25:10;;;;;;;92.63;35.22;;;6.20;99.90;;;;;;5100606;28;20036;-82
2022/11/30 03:27:36;;;;;;;101.72;36.45;;;6.20;99.90;;;;;;5073742;28;20029;-82
2022/11/30 03:30:03;;;;;;;97.15;33.90;;;6.20;99.90;;;;;;5089497;28;20041;-83
2022/11/30 03:32:29;;;;;;;114.65;35.55;;;6.20;99.90;;;;;;5088395;28;20489;-82
2022/11/30 03:34:56;;;;;;;97.47;36.40;;;6.20;99.90;;;;;;5074091;28;20036;-82
2022/11/30 03:37:22;;;;;;;108.45;38.03;;;6.20;99.90;;;;;;5073537;28;20382;-82
2022/11/30 03:39:48;;;;;;;101.35;36.47;;;6.20;99.90;;;;;;5073166;28;20047;-82
2022/11/30 03:42:14;;;;;;;106.90;35.08;;;6.20;99.90;;;;;;5073618;28;20036;-82
2022/11/30 03:44:40;;;;;;;111.28;36.95;;;6.20;99.90;;;;;;5074749;28;20036;-82
2022/11/30 03:47:07;;;;;;;100.20;36.88;;;6.20;99.90;;;;;;5074322;28;20377;-82
2022/11/30 03:49:33;;;;;;;102.28;34.85;;;6.20;99.90;;;;;;5072993;28;20031;-82
2022/11/30 03:51:59;;;;;;;110.75;38.20;;;6.20;99.90;;;;;;5073712;28;20043;-82
2022/11/30 03:54:25;;;;;;;105.18;36.42;;;6.20;99.90;;;;;;5073233;28;20051;-82
2022/11/30 03:56:51;;;;;;;109.78;35.58;;;6.20;99.90;;;;;;5073687;28;20477;-82
2022/11/30 03:59:17;;;;;;;109.75;38.08;;;6.20;99.90;;;;;;5088656;28;20052;-82
2022/11/30 04:01:43;;;;;;;108.68;38.13;;;6.20;99.90;;;;;;5073520;28;20044;-82
2022/11/30 04:04:10;;;;;;;109.43;36.00;;;6.20;99.90;;;;;;5073541;28;20032;-82
2022/11/30 04:06:37;;;;;;;114.13;39.10;;;6.20;99.90;;;;;;5072778;28;20057;-82
2022/11/30 04:09:03;;;;;;;103.95;38.67;;;6.20;99.90;;;;;;5074282;28;20037;-82
2022/11/30 04:11:29;;;;;;;101.55;37.50;;;6.20;99.90;;;;;;5064547;28;20032;-81
2022/11/30 04:13:55;;;;;;;118.97;40.22;;;6.20;99.90;;;;;;5074674;28;20047;-82
2022/11/30 04:16:21;;;;;;;112.40;39.75;;;6.20;99.90;;;;;;5089079;28;20037;-82
2022/11/30 04:18:47;;;;;;;108.28;38.53;;;6.20;99.90;;;;;;5073301;28;20462;-82
2022/11/30 04:21:14;;;;;;;118.05;37.05;;;6.20;99.90;;;;;;5071662;28;20044;-82
2022/11/30 04:23:40;;;;;;;106.53;38.55;;;6.30;99.90;;;;;;5072328;28;20040;-82
2022/11/30 04:26:10;;;;;;;110.75;37.75;;;6.20;99.90;;;;;;5073114;28;20028;-82
2022/11/30 04:28:36;;;;;;;110.67;35.90;;;6.20;99.90;;;;;;5072301;28;20033;-81
2022/11/30 04:31:03;;;;;;;110.82;38.40;;;6.20;99.90;;;;;;5073041;28;20036;-82
2022/11/30 04:33:29;;;;;;;123.45;40.35;;;6.20;99.90;;;;;;5070973;28;20040;-82
2022/11/30 04:35:58;;;;;;;101.00;36.72;;;6.20;99.90;;;;;;5071560;28;20044;-82
2022/11/30 04:38:25;;;;;;;117.43;39.75;;;6.20;99.90;;;;;;5071857;28;20044;-82
2022/11/30 04:40:51;;;;;;;122.22;39.95;;;6.20;99.90;;;;;;5072841;28;20029;-82
2022/11/30 04:43:18;;;;;;;117.22;39.03;;;6.30;99.90;;;;;;5072756;28;20033;-82
2022/11/30 04:45:45;;;;;;;126.88;41.15;;;6.30;99.90;;;;;;5072399;28;20043;-82
2022/11/30 04:48:12;;;;;;;123.82;40.58;;;6.30;99.90;;;;;;5072673;28;20040;-81
2022/11/30 04:50:38;;;;;;;115.57;40.33;;;6.20;99.90;;;;;;5071864;28;20271;-82
2022/11/30 04:53:05;;;;;;;134.80;40.40;;;6.30;99.90;;;;;;5071717;28;20386;-82
2022/11/30 04:55:31;;;;;;;127.68;40.70;;;6.30;99.90;;;;;;5087053;28;20121;-81
2022/11/30 04:57:57;;;;;;;120.40;39.80;;;6.30;99.90;;;;;;5088021;28;20039;-81
2022/11/30 05:00:24;;;;;;;122.97;40.20;;;6.30;99.90;;;;;;5071564;28;20068;-82
2022/11/30 05:02:50;;;;;;;129.27;40.28;;;6.30;99.90;;;;;;5072504;28;20029;-81
2022/11/30 05:05:16;;;;;;;127.50;39.05;;;6.30;99.90;;;;;;5072683;28;20040;-81
2022/11/30 05:07:43;;;;;;;112.78;41.20;;;6.30;99.90;;;;;;5071536;28;20048;-82
2022/11/30 05:10:09;;;;;;;130.65;41.15;;;6.20;99.90;;;;;;5072545;28;20029;-81
2022/11/30 05:12:35;;;;;;;109.20;38.50;;;6.30;99.90;;;;;;5071591;28;20032;-81
2022/11/30 05:15:02;;;;;;;132.27;42.08;;;6.30;99.90;;;;;;5072105;28;20028;-81
2022/11/30 05:17:28;;;;;;;126.57;39.55;;;6.30;99.90;;;;;;5071342;28;20028;-81
2022/11/30 05:19:54;;;;;;;117.47;38.90;;;6.30;99.90;;;;;;5071804;28;20037;-81
2022/11/30 05:22:20;;;;;;;130.05;40.08;;;6.30;99.90;;;;;;5071826;28;20033;-81
2022/11/30 05:24:46;;;;;;;121.15;38.83;;;6.30;99.90;;;;;;5070065;28;20029;-81
2022/11/30 05:27:12;;;;;;;115.93;40.80;;;6.30;99.90;;;;;;5071940;28;20044;-81
2022/11/30 05:29:39;;;;;;;121.03;38.90;;;6.30;99.90;;;;;;5071053;28;20040;-81
2022/11/30 05:32:05;;;;;;;119.65;40.42;;;6.30;99.90;;;;;;5072043;28;20039;-81
2022/11/30 05:34:31;;;;;;;113.57;39.13;;;6.30;99.90;;;;;;5069839;28;20470;-81
2022/11/30 05:36:59;;;;;;;138.18;39.97;;;6.30;99.90;;;;;;5072054;28;20032;-81
2022/11/30 05:39:25;;;;;;;122.07;39.70;;;6.30;99.90;;;;;;5071027;28;20382;-81
2022/11/30 05:41:51;;;;;;;133.43;39.22;;;6.30;99.90;;;;;;5071943;28;20386;-81
2022/11/30 05:44:17;;;;;;;125.53;40.50;;;6.30;99.90;;;;;;5071667;28;20028;-80
2022/11/30 05:46:43;;;;;;;123.35;41.20;;;6.30;99.90;;;;;;5070786;28;20032;-81
2022/11/30 05:49:10;;;;;;;132.65;41.33;;;6.30;99.90;;;;;;5071711;28;20040;-81
2022/11/30 05:51:38;;;;;;;118.28;37.85;;;6.30;99.90;;;;;;5071043;28;20024;-81
2022/11/30 05:54:04;;;;;;;122.60;40.88;;;6.30;99.90;;;;;;5069991;28;20060;-81
2022/11/30 05:56:30;;;;;;;126.55;42.40;;;6.30;99.90;;;;;;5071253;28;20374;-81
2022/11/30 05:58:56;;;;;;;124.38;41.17;;;6.30;99.90;;;;;;5071549;28;20083;-81
2022/11/30 06:01:25;;;;;;;130.40;39.15;;;6.30;99.90;;;;;;5071073;28;20028;-81
2022/11/30 06:03:51;;;;;;;140.93;40.88;;;6.30;99.90;;;;;;5071068;28;20032;-81
2022/11/30 06:06:18;;;;;;;126.50;41.17;;;6.30;99.90;;;;;;5071913;28;20025;-81
2022/11/30 06:08:45;;;;;;;139.23;43.15;;;6.20;99.90;;;;;;5070958;28;20578;-81
2022/11/30 06:11:12;;;;;;;131.90;43.13;;;6.30;99.90;;;;;;5071926;28;20029;-81
2022/11/30 06:13:39;;;;;;;121.47;39.10;;;6.30;99.90;;;;;;5086000;28;20052;-81
2022/11/30 06:16:05;;;;;;;128.35;42.60;;;6.30;99.90;;;;;;5076499;28;20032;-81
2022/11/30 06:18:32;;;;;;;122.57;41.30;;;6.30;99.90;;;;;;5082144;28;20025;-82
2022/11/30 06:21:00;;;;;;;120.72;40.85;;;6.30;99.90;;;;;;5076592;28;20055;-82
2022/11/30 06:23:26;;;;;;;125.43;41.58;;;6.30;99.90;;;;;;5069262;28;20041;-81
2022/11/30 06:25:52;;;;;;;127.50;41.05;;;6.20;99.90;;;;;;5068727;28;20033;-81
2022/11/30 06:28:18;;;;;;;126.78;43.72;;;6.30;99.90;;;;;;5063585;28;20029;-82
2022/11/30 06:30:44;;;;;;;124.70;40.40;;;6.30;99.90;;;;;;5067921;28;20029;-81
2022/11/30 06:33:11;;;;;;;121.05;42.78;;;6.20;99.90;;;;;;5068932;28;20048;-85
2022/11/30 06:35:44;;;;;;;120.05;41.55;;;6.30;99.90;;;;;;5064031;28;20036;-84
2022/11/30 06:38:10;;;;;;;130.65;39.03;;;6.30;99.90;;;;;;5067496;28;20028;-81
2022/11/30 06:40:36;;;;;;;141.02;40.25;;;6.20;99.90;;;;;;5078844;28;20045;-85
2022/11/30 06:43:02;;;;;;;134.38;43.15;;;6.20;99.90;;;;;;5051129;28;20045;-85
2022/11/30 06:45:30;;;;;;;122.22;39.95;;;6.20;99.90;;;;;;5053654;28;20039;-84
2022/11/30 06:47:57;;;;;;;120.97;39.33;;;6.20;99.90;;;;;;5050663;28;20025;-84
2022/11/30 06:50:24;;;;;;;123.40;38.97;;;6.20;99.90;;;;;;5051127;28;20033;-84
2022/11/30 06:52:50;;;;;;;125.25;39.80;;;6.20;99.90;;;;;;5051026;28;20037;-85
2022/11/30 06:55:16;;;;;;;139.27;42.13;;;6.20;99.90;;;;;;5065069;28;20029;-84
2022/11/30 06:57:43;;;;;;;123.85;39.40;;;6.20;99.90;;;;;;5070426;28;20032;-84
2022/11/30 07:00:11;;;;;;;126.80;39.95;;;6.30;99.90;;;;;;5069696;28;20064;-84
2022/11/30 07:02:37;;;;;;;123.88;40.25;;;6.20;99.90;;;;;;5070181;28;20048;-84
2022/11/30 07:05:04;;;;;;;129.95;40.03;;;6.20;99.90;;;;;;5071196;28;20028;-84
2022/11/30 07:07:31;;;;;;;128.55;39.80;;;6.20;99.90;;;;;;5085185;28;20033;-84
2022/11/30 07:09:57;;;;;;;136.73;42.72;;;6.30;99.90;;;;;;5071302;28;20029;-83
2022/11/30 07:12:24;;;;;;;120.13;37.83;;;6.20;99.90;;;;;;5085754;28;20043;-82
2022/11/30 07:14:54;;;;;;;127.88;40.88;;;6.20;99.90;;;;;;5071264;28;20029;-82
2022/11/30 07:17:20;;;;;;;135.65;41.55;;;6.30;99.90;;;;;;5073178;28;20040;-81
2022/11/30 07:19:46;;;;;;;131.82;40.13;;;6.20;99.90;;;;;;5064293;28;20289;-83
2022/11/30 07:22:13;;;;;;;123.80;41.03;;;6.20;99.90;;;;;;5055827;28;20029;-82
2022/11/30 07:27:24;;;;;;;122.60;41.85;;;6.30;99.90;;;;;;5054641;28;20470;-82
2022/11/30 07:29:51;;;;;;;131.05;41.85;;;6.30;99.90;;;;;;5054063;28;20765;-80
2022/11/30 07:32:18;;;;;;;125.95;40.45;;;6.30;99.90;;;;;;5054613;28;20485;-83
2022/11/30 07:34:45;;;;;;;116.88;41.65;;;6.30;99.90;;;;;;5053330;28;20057;-83
2022/11/30 07:37:11;;;;;;;139.88;42.92;;;6.40;99.90;;;;;;5057450;28;20029;-83
2022/11/30 07:39:37;;;;;;;120.15;38.45;;;6.30;99.90;;;;;;5052275;28;20021;-82
2022/11/30 07:42:03;;;;;;;115.90;39.83;;;6.40;99.90;;;;;;5052401;28;20466;-83
2022/11/30 07:44:31;;;;;;;115.68;39.15;;;6.40;99.90;;;;;;5052422;28;20060;-81
2022/11/30 07:46:59;;;;;;;109.97;39.65;;;6.40;99.90;;;;;;5054209;28;20382;-82
2022/11/30 07:49:25;;;;;;;115.75;38.40;;;6.40;99.90;;;;;;5053810;28;20036;-83
2022/11/30 07:51:51;;;;;;;116.07;38.78;;;6.50;99.90;;;;;;5053106;28;20033;-83
2022/11/30 07:54:18;;;;;;;118.82;38.10;;;6.50;99.90;;;;;;5053904;28;20040;-84
2022/11/30 07:56:44;;;;;;;108.93;34.05;;;6.50;99.90;;;;;;5055104;28;20033;-83
2022/11/30 07:59:10;;;;;;;121.78;40.63;;;6.50;99.90;;;;;;5062787;28;20053;-83
2022/11/30 08:01:36;;;;;;;110.07;39.70;;;6.50;99.90;;;;;;5053259;28;20040;-84
2022/11/30 08:04:03;;;;;;;103.13;37.25;;;6.50;99.90;;;;;;5053545;28;20466;-82
2022/11/30 08:06:30;;;;;;;116.25;40.53;;;6.60;99.90;;;;;;5053548;28;20033;-79
2022/11/30 08:08:59;;;;;;;101.07;36.50;;;6.60;99.90;;;;;;5053716;28;20043;-83
2022/11/30 08:11:29;;;;;;;100.55;36.15;;;6.60;99.90;;;;;;5054560;28;20040;-82
2022/11/30 08:13:55;;;;;;;106.00;37.45;;;6.60;99.90;;;;;;5053178;28;20045;-83
2022/11/30 08:16:25;;;;;;;112.05;37.10;;;6.60;99.90;;;;;;5053437;28;20044;-82
2022/11/30 08:18:53;;;;;;;104.38;40.10;;;6.60;99.90;;;;;;5052307;28;20032;-82
2022/11/30 08:21:20;;;;;;;102.40;38.08;;;6.60;99.90;;;;;;5053160;28;20470;-83
2022/11/30 08:23:49;;;;;;;106.28;36.63;;;6.60;99.90;;;;;;5052477;28;20033;-82
2022/11/30 08:26:20;;;;;;;97.10;37.08;;;6.60;99.90;;;;;;5053315;28;20033;-82
2022/11/30 08:28:48;;;;;;;107.93;35.53;;;6.60;99.90;;;;;;5051398;28;20048;-83
2022/11/30 08:31:18;;;;;;;101.22;38.88;;;6.70;99.90;;;;;;5055284;28;20056;-83
2022/11/30 08:33:44;;;;;;;111.63;36.92;;;6.70;99.90;;;;;;5068957;28;20045;-83
2022/11/30 08:36:20;;;;;;;108.95;39.40;;;6.70;99.90;;;;;;5068962;28;20410;-82
2022/11/30 08:38:47;;;;;;;108.32;35.33;;;6.70;99.90;;;;;;5072387;28;20029;-83
2022/11/30 08:41:16;;;;;;;85.78;34.38;;;6.70;99.90;;;;;;5073011;28;20032;-82
2022/11/30 08:43:42;;;;;;;96.60;34.83;;;6.70;99.90;;;;;;5071869;28;20039;-85
2022/11/30 08:46:11;;;;;;;104.90;35.85;;;6.70;99.90;;;;;;5072963;28;20068;-83
2022/11/30 08:48:37;;;;;;;100.63;34.90;;;6.70;99.90;;;;;;5072246;28;20040;-82
2022/11/30 08:51:06;;;;;;;102.22;35.30;;;6.70;99.90;;;;;;5072589;28;20036;-82
2022/11/30 08:53:33;;;;;;;93.88;34.75;;;6.80;99.90;;;;;;5072097;28;20032;-80
2022/11/30 08:56:02;;;;;;;99.78;36.80;;;6.80;99.90;;;;;;5072070;28;20033;-83
2022/11/30 08:58:33;;;;;;;97.90;38.08;;;6.80;99.90;;;;;;5072226;28;20035;-82
2022/11/30 09:01:12;;;;;;;92.05;34.58;;;6.80;99.90;;;;;;5071727;28;20040;-81
2022/11/30 09:03:39;;;;;;;87.47;34.30;;;6.80;99.90;;;;;;5071243;28;20059;-80
2022/11/30 09:06:12;;;;;;;95.00;35.28;;;6.80;99.90;;;;;;5072090;28;20024;-81
2022/11/30 09:08:39;;;;;;;93.03;34.38;;;6.80;99.90;;;;;;5071716;28;20365;-81
2022/11/30 09:11:15;;;;;;;93.97;34.90;;;6.80;99.90;;;;;;5065910;28;20030;-81
2022/11/30 09:13:42;;;;;;;81.35;32.67;;;6.90;99.90;;;;;;5053111;28;20037;-81
2022/11/30 09:16:10;;;;;;;92.22;31.65;;;6.80;99.90;;;;;;5052449;28;20029;-83
2022/11/30 09:18:36;;;;;;;87.07;32.13;;;6.80;99.90;;;;;;5051401;28;20028;-79
2022/11/30 09:21:05;;;;;;;87.00;31.75;;;6.80;99.90;;;;;;5052295;28;20029;-80
2022/11/30 09:23:32;;;;;;;85.38;34.00;;;6.80;99.90;;;;;;5050830;28;20479;-81
2022/11/30 09:26:00;;;;;;;85.90;33.83;;;6.80;99.90;;;;;;5051570;28;20355;-80
2022/11/30 09:28:27;;;;;;;80.32;30.52;;;6.80;99.90;;;;;;5052220;28;20033;-80
2022/11/30 09:30:53;;;;;;;71.88;29.52;;;6.80;99.90;;;;;;5051586;28;20471;-80
2022/11/30 09:33:21;;;;;;;82.28;31.55;;;6.80;99.90;;;;;;5067322;28;20375;-81
2022/11/30 09:35:55;;;;;;;84.88;32.13;;;6.90;99.90;;;;;;5051053;28;20040;-81
2022/11/30 09:38:21;;;;;;;76.13;28.27;;;6.90;99.90;;;;;;5051357;28;20041;-81
2022/11/30 09:41:12;;;;;;;80.80;29.23;;;7.00;99.90;;;;;;5051242;28;20033;-82
2022/11/30 09:44:09;;;;;;;71.57;29.45;;;7.00;99.90;;;;;;5022721;28;20045;-80
2022/11/30 09:46:40;;;;;;;75.20;29.50;;;7.00;99.90;;;;;;5066918;28;20497;-81
2022/11/30 09:49:23;;;;;;;;;;;7.10;99.90;;;;;;5061787;28;20033;-83
2022/11/30 09:51:53;;;;;;;72.57;27.02;;;7.10;99.90;;;;;;5071348;28;20361;-84
2022/11/30 09:54:34;;;;;;;72.25;29.40;;;7.10;99.90;;;;;;5071292;28;20040;-82
2022/11/30 09:57:24;;;;;;;66.20;26.20;;;7.20;99.90;;;;;;5071390;28;20033;-83
2022/11/30 10:00:03;;;;;;;69.65;27.35;;;7.20;99.90;;;;;;5041957;28;20064;-83
2022/11/30 10:02:38;;;;;;;71.40;26.98;;;7.30;99.90;;;;;;5077956;28;20045;-83
2022/11/30 10:05:13;;;;;;;61.63;25.30;;;7.40;99.90;;;;;;5071860;28;20048;-83
2022/11/30 10:08:08;;;;;;;59.88;25.65;;;7.40;99.90;;;;;;5070869;28;20028;-81
2022/11/30 10:10:40;;;;;;;53.53;25.20;;;7.50;99.90;;;;;;5071968;28;20032;-83
2022/11/30 10:13:27;;;;;;;57.17;24.92;;;7.40;99.90;;;;;;5071011;28;20031;-83
2022/11/30 10:15:57;;;;;;;47.72;22.00;;;7.40;99.90;;;;;;5070648;28;20032;-81
2022/11/30 10:18:42;;;;;;;52.25;23.83;;;7.40;99.90;;;;;;5087209;28;20041;-83
2022/11/30 10:21:23;;;;;;;47.78;22.42;;;7.40;99.90;;;;;;5071567;28;20036;-82
2022/11/30 10:24:14;;;;;;;46.35;22.88;;;7.40;99.90;;;;;;5090524;28;20045;-80
2022/11/30 10:26:51;;;;;;;38.00;20.48;;;7.40;99.90;;;;;;5080005;28;20029;-82
2022/11/30 10:29:38;;;;;;;47.63;24.77;;;7.40;99.90;;;;;;5064844;28;20036;-83
2022/11/30 10:32:20;;;;;;;42.22;21.50;;;7.40;99.90;;;;;;5095792;28;20032;-83
2022/11/30 10:34:53;;;;;;;47.65;24.05;;;7.50;99.90;;;;;;5096283;28;20028;-83
2022/11/30 10:37:34;;;;;;;44.53;20.10;;;7.50;99.90;;;;;;5092640;28;20032;-83
2022/11/30 10:40:22;;;;;;;45.63;21.27;;;7.60;99.90;;;;;;5091578;28;20032;-83
2022/11/30 10:43:17;;;;;;;42.17;19.52;;;7.70;99.90;;;;;;5106719;28;20036;-83
2022/11/30 10:45:47;;;;;;;34.50;18.15;;;7.70;99.90;;;;;;5071208;28;20040;-83
2022/11/30 10:48:31;;;;;;;41.03;19.73;;;7.70;99.90;;;;;;5091790;28;20032;-82
2022/11/30 10:50:59;;;;;;;37.15;19.42;;;7.70;99.90;;;;;;5102034;28;20039;-84
2022/11/30 10:53:26;;;;;;;35.28;18.70;;;7.90;99.90;;;;;;5100898;28;20053;-83
2022/11/30 10:56:01;;;;;;;38.35;17.73;;;8.00;99.90;;;;;;5095061;28;20031;-83
2022/11/30 10:58:54;;;;;;;34.92;17.33;;;8.00;99.90;;;;;;5095863;28;20032;-83
2022/11/30 11:01:34;;;;;;;33.17;16.98;;;7.90;99.90;;;;;;5096167;28;20040;-83
2022/11/30 11:04:11;;;;;;;35.40;17.15;;;8.00;99.90;;;;;;5094895;28;20024;-83
2022/11/30 11:06:55;;;;;;;28.20;15.55;;;8.00;99.90;;;;;;5079940;28;20029;-83
2022/11/30 11:09:29;;;;;;;26.98;16.98;;;7.90;99.90;;;;;;5060036;28;20394;-83
2022/11/30 11:12:04;;;;;;;28.67;15.52;;;7.90;99.90;;;;;;5054059;28;20025;-83
2022/11/30 11:14:32;;;;;;;33.42;15.95;;;8.00;99.90;;;;;;5054666;28;20037;-84
2022/11/30 11:17:04;;;;;;;30.35;15.25;;;8.00;99.90;;;;;;5054019;28;20044;-84
2022/11/30 11:19:35;;;;;;;31.88;18.00;;;8.00;99.90;;;;;;5054885;28;20036;-86
2022/11/30 11:22:23;;;;;;;21.95;12.75;;;8.00;99.90;;;;;;5064501;28;20020;-83
2022/11/30 11:25:05;;;;;;;24.42;13.73;;;8.10;99.90;;;;;;5090801;28;20488;-82
2022/11/30 11:27:33;;;;;;;20.25;12.57;;;8.20;99.90;;;;;;5088294;28;20032;-83
2022/11/30 11:30:12;;;;;;;31.00;15.60;;;8.20;99.90;;;;;;5081143;28;20036;-84
2022/11/30 11:32:38;;;;;;;19.33;13.55;;;8.30;99.90;;;;;;5074215;28;20029;-80
2022/11/30 11:35:31;;;;;;;25.25;14.15;;;8.40;99.90;;;;;;5073371;28;20044;-82
2022/11/30 11:37:57;;;;;;;20.70;12.98;;;8.60;99.90;;;;;;5088759;28;20093;-83
2022/11/30 11:40:23;;;;;;;24.63;13.65;;;8.80;96.00;;;;;;5073445;28;20032;-83
2022/11/30 11:42:52;;;;;;;17.25;10.52;;;8.70;82.50;;;;;;5068513;28;20091;-85
2022/11/30 11:45:33;;;;;;;17.98;11.85;;;8.70;87.60;;;;;;5062761;28;20037;-85
2022/11/30 11:48:07;;;;;;;20.63;11.57;;;8.60;81.00;;;;;;5053831;28;20202;-84
2022/11/30 11:50:38;;;;;;;17.33;11.63;;;8.40;91.20;;;;;;5069579;28;20037;-84
2022/11/30 11:53:21;;;;;;;21.25;11.85;;;8.30;92.60;;;;;;5068925;28;20037;-84
2022/11/30 11:55:56;;;;;;;18.10;11.55;;;8.20;95.30;;;;;;5053588;28;20048;-84
2022/11/30 11:58:54;;;;;;;19.00;12.30;;;8.20;98.60;;;;;;5069365;28;20467;-84
2022/11/30 12:01:45;;;;;;;19.05;10.35;;;8.20;96.60;;;;;;5071882;28;20481;-84
2022/11/30 12:04:22;;;;;;;17.13;10.45;;;8.30;96.50;;;;;;5094091;28;20031;-84
2022/11/30 12:06:52;;;;;;;19.73;10.18;;;8.40;91.70;;;;;;5093074;28;20039;-84
2022/11/30 12:09:28;;;;;;;15.05;10.10;;;8.50;83.00;;;;;;5093900;28;20031;-83
2022/11/30 12:11:54;;;;;;;13.43;9.13;;;8.50;76.40;;;;;;5093409;28;20024;-84
2022/11/30 12:14:20;;;;;;;16.30;9.43;;;8.60;68.90;;;;;;5094072;28;20047;-82
2022/11/30 12:17:22;;;;;;;18.23;12.13;;;8.80;77.30;;;;;;5093458;28;20028;-83
2022/11/30 12:19:48;;;;;;;13.40;8.98;;;8.90;77.50;;;;;;5071417;28;20035;-83
2022/11/30 12:22:44;;;;;;;12.63;8.48;;;8.90;51.00;;;;;;5071179;28;20037;-83
2022/11/30 12:25:32;;;;;;;14.73;9.10;;;8.80;53.70;;;;;;5052862;28;20048;-83
2022/11/30 12:28:25;;;;;;;13.60;8.57;;;8.80;49.20;;;;;;5052859;28;20028;-83
2022/11/30 12:31:12;;;;;;;18.83;9.23;;;8.90;51.10;;;;;;5080186;28;20040;-80
2022/11/30 12:33:49;;;;;;;14.30;9.48;;;8.90;49.40;;;;;;5108954;28;20036;-79
2022/11/30 12:36:40;;;;;;;16.73;9.43;;;9.00;57.30;;;;;;5093207;28;20381;-80
2022/11/30 12:39:14;;;;;;;12.93;8.95;;;9.10;45.70;;;;;;5091881;28;20036;-78
2022/11/30 12:42:01;;;;;;;15.05;8.88;;;9.10;36.20;;;;;;5093006;28;20032;-80
2022/11/30 12:44:48;;;;;;;14.93;9.68;;;9.00;31.20;;;;;;5093151;28;20039;-79
2022/11/30 12:47:29;;;;;;;13.27;9.43;;;9.00;41.20;;;;;;5092775;28;20044;-81
2022/11/30 12:49:55;;;;;;;;;;;9.00;46.50;;;;;;5092467;28;20044;-80
2022/11/30 12:52:30;;;;;;;12.13;8.50;;;9.00;50.90;;;;;;5093073;28;20242;-79